Arcata Airport Arcata,Eureka US
ICAO: KACV
IATA: ACV
Category: Medium
Scheduled Services: Yes

Elevation: 221 ft
TransAlt. 18000 ft.

Airport Communications:
ASOS:118.525
SEATTLE CNTR:124.85
COAST GUARD AIR OPS:34.5
OAKLAND RDO:122.6
CTAF/UNICOM:123

KACV Zoom In..

If Map Doesn't Load, Click Here

Runways:

(A) RW 01 length 4501 ft width 150 ft
---- / hdg 13

(B) RW 14 length 6046 ft width 150 ft
---- / hdg 136

(C) RW 19 length 4501 ft width 150 ft
---- / hdg 193

(D) RW 32 length 6046 ft width 150 ft
ILS 109.50 / hdg 316

Location; KACV
Day. 24 / Time. 04.53 Zulu
* Altimeter: 29.95
* Temperature: 12° c. 53.6°f.
* Wind from: 140° Speed 05 kn.
Dewpoint: 09° c.
Visibility: 9 Statute Miles.
Clouds: Clear (automated report).

KACV 240453Z AUTO 14005KT 9SM CLR 12/09 A2995 RMK AO2 SLP147 T01170094


Wind From 140°
Speed 05 kn.

 
 
jpsmedia.com for Web Design worldairports.se 2018   terms of use